Time;durP1;ratioP1;P1;durP2;ratioP2;P2;SDS_P1;SDS_P2;PMS_P1;PMS_P2;Temp;Humidity;BMP_temperature;BMP_pressure;BME280_temperature;BME280_humidity;BME280_pressure;Samples;Min_cycle;Max_cycle;Signal;HPM_P1;HPM_P2
2020/12/11 00:00:06;;;;;;;34.03;10.82;;;5.10;99.90;;;;;;5060897;28;20045;-49
2020/12/11 00:02:36;;;;;;;39.05;12.63;;;5.00;99.90;;;;;;5065609;28;20498;-50
2020/12/11 00:05:03;;;;;;;24.00;13.18;;;5.00;99.90;;;;;;5072388;28;20045;-49
2020/12/11 00:07:34;;;;;;;28.95;16.63;;;4.90;99.90;;;;;;5069380;28;20507;-49
2020/12/11 00:10:01;;;;;;;16.63;10.75;;;4.90;99.90;;;;;;5067006;28;20044;-49
2020/12/11 00:12:28;;;;;;;11.75;8.00;;;4.80;99.90;;;;;;5071625;28;20040;-49
2020/12/11 00:14:54;;;;;;;14.73;7.82;;;4.90;99.90;;;;;;5069831;28;20063;-50
2020/12/11 00:17:23;;;;;;;11.60;6.65;;;4.90;99.90;;;;;;5072419;28;20139;-49
2020/12/11 00:19:50;;;;;;;7.53;6.32;;;5.00;99.90;;;;;;5070642;28;20114;-50
2020/12/11 00:22:16;;;;;;;9.65;6.45;;;5.00;99.90;;;;;;5070903;28;20044;-49
2020/12/11 00:24:43;;;;;;;14.85;5.93;;;5.00;99.90;;;;;;5069590;28;20063;-49
2020/12/11 00:27:10;;;;;;;30.80;8.45;;;5.00;99.90;;;;;;5071180;28;20048;-49
2020/12/11 00:29:36;;;;;;;21.42;8.32;;;4.90;99.90;;;;;;5065313;28;20057;-49
2020/12/11 00:32:04;;;;;;;28.92;10.38;;;4.90;99.90;;;;;;5061625;28;20045;-50
2020/12/11 00:34:31;;;;;;;22.83;10.23;;;4.90;99.90;;;;;;5072853;28;20044;-49
2020/12/11 00:37:01;;;;;;;31.52;11.52;;;4.90;99.90;;;;;;5069957;28;20052;-49
2020/12/11 00:39:28;;;;;;;27.73;11.60;;;5.00;99.90;;;;;;5054400;28;20044;-49
2020/12/11 00:41:54;;;;;;;23.83;11.27;;;4.90;99.90;;;;;;5070034;28;20067;-49
2020/12/11 00:44:21;;;;;;;17.95;10.20;;;5.00;99.90;;;;;;5067532;28;20068;-49
2020/12/11 00:46:48;;;;;;;20.85;9.65;;;5.00;99.90;;;;;;5069464;28;20454;-49
2020/12/11 00:49:15;;;;;;;29.13;13.63;;;5.00;99.90;;;;;;5061710;28;20480;-49
2020/12/11 00:51:41;;;;;;;80.95;15.85;;;4.90;99.90;;;;;;5069863;28;20049;-49
2020/12/11 00:54:08;;;;;;;162.90;17.05;;;4.80;99.90;;;;;;5070164;28;20052;-49
2020/12/11 00:56:35;;;;;;;218.23;17.98;;;4.70;99.90;;;;;;5072127;28;20044;-49
2020/12/11 00:59:02;;;;;;;59.95;12.80;;;4.60;99.90;;;;;;5069087;28;20094;-48
2020/12/11 01:01:28;;;;;;;85.18;11.40;;;4.60;99.90;;;;;;5068295;28;20045;-48
2020/12/11 01:03:55;;;;;;;32.25;8.80;;;4.60;99.90;;;;;;5063917;28;20045;-49
2020/12/11 01:06:22;;;;;;;154.68;16.90;;;4.50;99.90;;;;;;5059413;28;20393;-49
2020/12/11 01:08:48;;;;;;;33.78;10.25;;;4.50;99.90;;;;;;5072044;28;20075;-48
2020/12/11 01:11:15;;;;;;;15.50;9.05;;;4.50;99.90;;;;;;5070153;28;20044;-49
2020/12/11 01:13:41;;;;;;;31.00;9.45;;;4.50;99.90;;;;;;5071523;28;20048;-49
2020/12/11 01:16:08;;;;;;;15.95;9.07;;;4.50;99.90;;;;;;5070145;28;20075;-49
2020/12/11 01:18:34;;;;;;;10.55;6.30;;;4.50;99.90;;;;;;5069748;28;20044;-48
2020/12/11 01:21:02;;;;;;;12.77;7.13;;;4.40;99.90;;;;;;5071269;28;20048;-48
2020/12/11 01:23:28;;;;;;;14.88;4.85;;;4.50;99.90;;;;;;5072829;28;20435;-48
2020/12/11 01:25:54;;;;;;;8.80;2.22;;;4.50;99.90;;;;;;5062205;28;20049;-49
2020/12/11 01:28:21;;;;;;;3.60;3.30;;;4.50;99.90;;;;;;5063080;28;20059;-49
2020/12/11 01:30:48;;;;;;;2.45;2.20;;;4.50;99.90;;;;;;5081389;28;20067;-49
2020/12/11 01:33:14;;;;;;;6.28;3.78;;;4.60;99.90;;;;;;5070720;28;20056;-49
2020/12/11 01:35:42;;;;;;;4.20;2.00;;;4.70;99.90;;;;;;5069695;28;20068;-49
2020/12/11 01:38:09;;;;;;;1.35;1.10;;;4.60;99.90;;;;;;5069820;28;20048;-49
2020/12/11 01:40:36;;;;;;;2.53;1.17;;;4.50;99.90;;;;;;5071047;28;20059;-49
2020/12/11 01:43:03;;;;;;;3.28;1.02;;;4.50;99.90;;;;;;5059942;28;20048;-49
2020/12/11 01:45:30;;;;;;;2.22;1.20;;;4.50;99.90;;;;;;5061474;28;20052;-49
2020/12/11 01:47:57;;;;;;;1.52;1.05;;;4.50;99.90;;;;;;5075530;28;20047;-49
2020/12/11 01:50:24;;;;;;;1.48;1.13;;;4.50;99.90;;;;;;5071477;28;20508;-49
2020/12/11 01:52:51;;;;;;;1.20;1.00;;;4.50;99.90;;;;;;5052936;28;20068;-49
2020/12/11 01:55:18;;;;;;;1.95;1.02;;;4.60;99.90;;;;;;5064718;28;20060;-49
2020/12/11 01:57:56;;;;;;;2.03;1.08;;;4.50;99.90;;;;;;5057809;28;20052;-48
2020/12/11 02:00:23;;;;;;;2.25;1.05;;;4.50;99.90;;;;;;5062528;28;20052;-49
2020/12/11 02:03:02;;;;;;;2.45;0.98;;;4.50;99.90;;;;;;5070757;28;21636;-49
2020/12/11 02:05:29;;;;;;;3.67;1.20;;;4.60;99.90;;;;;;5070289;28;20098;-49
2020/12/11 02:07:56;;;;;;;1.40;1.15;;;4.60;99.90;;;;;;5069685;28;20051;-49
2020/12/11 02:10:23;;;;;;;1.50;1.00;;;4.60;99.90;;;;;;5073073;28;20056;-51
2020/12/11 02:12:50;;;;;;;2.58;2.38;;;4.60;99.90;;;;;;5072971;28;20045;-49
2020/12/11 02:15:17;;;;;;;3.25;2.03;;;4.60;99.90;;;;;;5070700;28;20797;-49
2020/12/11 02:17:43;;;;;;;3.03;1.90;;;4.60;99.90;;;;;;5074200;28;20044;-49
2020/12/11 02:20:10;;;;;;;3.53;2.67;;;4.60;99.90;;;;;;5072597;28;20050;-49
2020/12/11 02:22:37;;;;;;;2.20;1.40;;;4.50;99.90;;;;;;5072345;28;20051;-49
2020/12/11 02:25:03;;;;;;;1.40;0.90;;;4.40;99.90;;;;;;5071519;28;20063;-50
2020/12/11 02:27:30;;;;;;;2.55;0.90;;;4.30;99.90;;;;;;5061043;28;20045;-49
2020/12/11 02:29:57;;;;;;;1.67;0.85;;;4.30;99.90;;;;;;5073354;28;20049;-48
2020/12/11 02:32:23;;;;;;;2.10;1.20;;;4.30;99.90;;;;;;5072446;28;20048;-50
2020/12/11 02:34:50;;;;;;;1.45;0.93;;;4.20;99.90;;;;;;5074109;28;20557;-48
2020/12/11 02:37:16;;;;;;;2.00;1.10;;;4.20;99.90;;;;;;5070702;28;20044;-50
2020/12/11 02:39:43;;;;;;;3.55;1.30;;;4.20;99.90;;;;;;5074265;28;20048;-49
2020/12/11 02:42:09;;;;;;;4.88;1.25;;;4.10;99.90;;;;;;5071985;28;20049;-49
2020/12/11 02:44:36;;;;;;;1.48;0.93;;;4.10;99.90;;;;;;5073136;28;20037;-49
2020/12/11 02:47:02;;;;;;;3.15;1.25;;;4.00;99.90;;;;;;5078675;28;20515;-49
2020/12/11 02:49:29;;;;;;;5.32;1.08;;;4.00;99.90;;;;;;5075466;28;20053;-49
2020/12/11 02:51:55;;;;;;;2.65;0.90;;;4.00;99.90;;;;;;5062941;28;20473;-48
2020/12/11 02:54:22;;;;;;;1.70;0.80;;;4.00;99.90;;;;;;5066234;28;20507;-48
2020/12/11 02:56:48;;;;;;;2.85;1.10;;;4.00;99.90;;;;;;5057751;28;20462;-49
2020/12/11 02:59:14;;;;;;;1.05;0.88;;;3.90;99.90;;;;;;5069829;28;20055;-50
2020/12/11 03:01:41;;;;;;;1.42;0.88;;;3.90;99.90;;;;;;5070974;28;20048;-48
2020/12/11 03:04:08;;;;;;;1.00;0.90;;;3.90;99.90;;;;;;5068074;28;20059;-48
2020/12/11 03:06:35;;;;;;;1.17;0.73;;;4.00;99.90;;;;;;5060532;28;20052;-50
2020/12/11 03:09:03;;;;;;;1.17;0.90;;;4.00;99.90;;;;;;5071131;28;20405;-48
2020/12/11 03:11:29;;;;;;;1.48;0.80;;;4.00;99.90;;;;;;5072495;28;20412;-49
2020/12/11 03:13:56;;;;;;;1.95;1.80;;;4.00;99.90;;;;;;5058572;28;20052;-49
2020/12/11 03:16:22;;;;;;;1.08;1.00;;;3.90;99.90;;;;;;5069200;28;20052;-49
2020/12/11 03:18:49;;;;;;;1.00;0.70;;;3.90;99.90;;;;;;5071424;28;20048;-48
2020/12/11 03:21:17;;;;;;;1.02;0.70;;;3.90;99.90;;;;;;5066356;28;20052;-48
2020/12/11 03:23:43;;;;;;;0.95;0.60;;;3.80;99.90;;;;;;5060664;28;20044;-50
2020/12/11 03:26:10;;;;;;;1.77;0.70;;;3.80;99.90;;;;;;5064717;28;20474;-48
2020/12/11 03:28:36;;;;;;;0.70;0.70;;;3.70;99.90;;;;;;5071410;28;20057;-49
2020/12/11 03:31:03;;;;;;;0.70;0.63;;;3.70;99.90;;;;;;5077608;28;20048;-48
2020/12/11 03:33:30;;;;;;;1.42;0.60;;;3.60;99.90;;;;;;5074820;28;20055;-49
2020/12/11 03:35:56;;;;;;;1.48;0.60;;;3.70;99.90;;;;;;5058237;28;20680;-48
2020/12/11 03:38:23;;;;;;;1.00;0.75;;;3.70;99.90;;;;;;5071885;28;20056;-48
2020/12/11 03:40:49;;;;;;;3.15;1.40;;;3.70;99.90;;;;;;5072004;28;20067;-49
2020/12/11 03:43:17;;;;;;;3.33;1.70;;;3.60;99.90;;;;;;5062873;28;20045;-48
2020/12/11 03:45:43;;;;;;;1.05;0.80;;;3.60;99.90;;;;;;5063906;28;20066;-48
2020/12/11 03:48:10;;;;;;;1.83;0.82;;;3.60;99.90;;;;;;5059790;28;20549;-49
2020/12/11 03:50:36;;;;;;;2.95;0.70;;;3.70;99.90;;;;;;5068241;28;20063;-48
2020/12/11 03:53:03;;;;;;;8.00;1.05;;;3.60;99.90;;;;;;5065888;28;20741;-48
2020/12/11 03:55:31;;;;;;;0.77;0.68;;;3.60;99.90;;;;;;5066809;28;20064;-49
2020/12/11 03:57:58;;;;;;;5.80;0.82;;;3.40;99.90;;;;;;5059713;28;20048;-49
2020/12/11 04:00:25;;;;;;;41.70;4.63;;;3.40;99.90;;;;;;5070996;28;20048;-49
2020/12/11 04:02:51;;;;;;;327.88;15.45;;;3.30;99.90;;;;;;5071101;28;20050;-49
2020/12/11 04:05:19;;;;;;;406.95;18.38;;;3.20;99.90;;;;;;5066137;28;20048;-50
2020/12/11 04:07:45;;;;;;;226.90;10.65;;;3.10;99.90;;;;;;5070394;28;20053;-49
2020/12/11 04:10:12;;;;;;;254.77;9.02;;;3.10;99.90;;;;;;5072618;28;20055;-49
2020/12/11 04:12:38;;;;;;;164.32;5.10;;;3.00;99.90;;;;;;5069308;28;20059;-49
2020/12/11 04:15:05;;;;;;;295.13;9.77;;;3.10;99.90;;;;;;5072475;28;20060;-49
2020/12/11 04:17:31;;;;;;;200.93;7.43;;;3.00;99.90;;;;;;5069263;28;20047;-49
2020/12/11 04:19:58;;;;;;;171.85;4.07;;;2.90;99.90;;;;;;5061033;28;20045;-49
2020/12/11 04:22:25;;;;;;;161.95;2.75;;;2.70;99.90;;;;;;5076444;28;20048;-48
2020/12/11 04:24:52;;;;;;;91.72;1.58;;;2.60;99.90;;;;;;5075029;28;20044;-48
2020/12/11 04:27:18;;;;;;;112.88;1.17;;;2.60;99.90;;;;;;5054959;28;20045;-48
2020/12/11 04:29:45;;;;;;;94.25;1.40;;;2.60;99.90;;;;;;5070933;28;20063;-49
2020/12/11 04:32:14;;;;;;;78.70;2.03;;;2.70;99.90;;;;;;5070487;28;20053;-49
2020/12/11 04:34:40;;;;;;;46.65;1.35;;;2.70;99.90;;;;;;5063442;28;20114;-48
2020/12/11 04:37:07;;;;;;;69.70;1.60;;;2.60;99.90;;;;;;5064556;28;20044;-49
2020/12/11 04:39:34;;;;;;;25.02;0.90;;;2.60;99.90;;;;;;5072068;28;20041;-49
2020/12/11 04:42:02;;;;;;;6.85;0.60;;;2.70;99.90;;;;;;5064922;28;20082;-51
2020/12/11 04:44:29;;;;;;;29.52;0.70;;;2.80;99.90;;;;;;5068279;28;20044;-49
2020/12/11 04:47:03;;;;;;;52.45;0.70;;;2.80;99.90;;;;;;5067221;28;20044;-48
2020/12/11 04:49:33;;;;;;;97.38;0.98;;;2.70;99.90;;;;;;5055106;28;20067;-48
2020/12/11 04:52:04;;;;;;;40.05;0.60;;;2.70;99.90;;;;;;5071641;28;20040;-48
2020/12/11 04:54:36;;;;;;;63.80;1.25;;;2.60;99.90;;;;;;5065586;28;20048;-48
2020/12/11 04:57:07;;;;;;;94.10;1.00;;;2.60;99.90;;;;;;5059078;28;20048;-49
2020/12/11 04:59:34;;;;;;;99.47;1.17;;;2.70;99.90;;;;;;5069268;28;20041;-48
2020/12/11 05:02:12;;;;;;;104.93;1.70;;;2.40;99.90;;;;;;5070797;28;20045;-48
2020/12/11 05:04:39;;;;;;;139.18;2.42;;;2.20;99.90;;;;;;5070682;28;20052;-48
2020/12/11 05:07:05;;;;;;;45.83;1.30;;;2.20;99.90;;;;;;5071307;28;20070;-49
2020/12/11 05:09:32;;;;;;;19.33;0.75;;;2.20;99.90;;;;;;5060335;28;20049;-49
2020/12/11 05:11:59;;;;;;;201.95;4.22;;;2.30;99.90;;;;;;5063395;28;20047;-52
2020/12/11 05:14:30;;;;;;;158.15;4.55;;;2.20;99.90;;;;;;5071586;28;20057;-48
2020/12/11 05:17:01;;;;;;;193.90;4.88;;;2.10;99.90;;;;;;5068589;28;20037;-49
2020/12/11 05:19:30;;;;;;;231.35;7.32;;;2.10;99.90;;;;;;5063233;28;20116;-50
2020/12/11 05:22:10;;;;;;;461.15;15.45;;;2.10;99.90;;;;;;5071189;28;20397;-49
2020/12/11 05:24:42;;;;;;;156.20;3.00;;;2.00;99.90;;;;;;5060533;28;20063;-49
2020/12/11 05:27:43;;;;;;;205.65;3.67;;;2.00;99.90;;;;;;5071893;28;20048;-48
2020/12/11 05:30:10;;;;;;;215.98;5.25;;;1.90;99.90;;;;;;5066540;28;20052;-48
2020/12/11 05:32:39;;;;;;;170.68;2.65;;;1.90;99.90;;;;;;5075236;28;20055;-48
2020/12/11 05:35:20;;;;;;;235.93;4.35;;;1.80;99.90;;;;;;5071359;28;20063;-49
2020/12/11 05:37:51;;;;;;;236.13;4.20;;;1.70;99.90;;;;;;5063313;28;20106;-49
2020/12/11 05:40:25;;;;;;;42.72;0.60;;;1.60;99.90;;;;;;5073054;28;20040;-49
2020/12/11 05:43:19;;;;;;;136.60;1.77;;;1.70;99.90;;;;;;5066959;28;20044;-48
2020/12/11 05:45:55;;;;;;;102.07;2.20;;;1.80;99.90;;;;;;5070595;28;20051;-48
2020/12/11 05:48:39;;;;;;;160.18;2.10;;;1.80;99.90;;;;;;5085600;28;20305;-49
2020/12/11 05:51:16;;;;;;;;;;;1.70;99.90;;;;;;5076358;28;20405;-48
2020/12/11 05:53:43;;;;;;;46.25;0.60;;;1.70;99.90;;;;;;5075938;28;19927;-48
2020/12/11 05:56:10;;;;;;;0.50;0.30;;;1.70;99.90;;;;;;5069246;28;20049;-48
2020/12/11 05:58:37;;;;;;;23.63;0.32;;;1.70;99.90;;;;;;5073147;28;20044;-48
2020/12/11 06:01:04;;;;;;;25.90;0.30;;;1.70;99.90;;;;;;5076105;28;20134;-49
2020/12/11 06:03:33;;;;;;;14.18;0.32;;;1.70;99.90;;;;;;5073235;28;20048;-48
2020/12/11 06:05:59;;;;;;;6.57;0.20;;;1.70;99.90;;;;;;5069332;28;20067;-48
2020/12/11 06:08:27;;;;;;;10.52;0.30;;;1.60;99.90;;;;;;5071084;28;20065;-48
2020/12/11 06:10:54;;;;;;;35.65;0.45;;;1.70;99.90;;;;;;5069768;28;20047;-49
2020/12/11 06:13:35;;;;;;;41.42;0.57;;;1.60;99.90;;;;;;5074316;28;20048;-48
2020/12/11 06:16:08;;;;;;;144.43;1.85;;;1.50;99.90;;;;;;5075381;28;20056;-47
2020/12/11 06:18:38;;;;;;;108.45;1.25;;;1.50;99.90;;;;;;5066754;28;20379;-48
2020/12/11 06:21:05;;;;;;;26.23;0.52;;;1.50;99.90;;;;;;5073008;28;20055;-48
2020/12/11 06:23:32;;;;;;;62.80;1.00;;;1.60;99.90;;;;;;5071041;28;20457;-48
2020/12/11 06:26:02;;;;;;;182.60;5.38;;;1.60;99.90;;;;;;5054281;28;20044;-49
2020/12/11 06:28:35;;;;;;;49.15;0.88;;;1.50;99.90;;;;;;5059410;28;20057;-49
2020/12/11 06:31:15;;;;;;;151.50;2.77;;;1.50;99.90;;;;;;5073239;28;20044;-49
2020/12/11 06:33:54;;;;;;;200.07;3.33;;;1.40;99.90;;;;;;5072573;28;20063;-49
2020/12/11 06:36:20;;;;;;;196.55;3.03;;;1.40;99.90;;;;;;5064687;28;20076;-50
2020/12/11 06:38:56;;;;;;;101.90;1.05;;;1.30;99.90;;;;;;5068877;28;20048;-49
2020/12/11 06:41:28;;;;;;;39.63;0.50;;;1.30;99.90;;;;;;5069758;28;20045;-49
2020/12/11 06:43:56;;;;;;;28.55;0.35;;;1.40;99.90;;;;;;5073733;28;20055;-49
2020/12/11 06:46:28;;;;;;;190.70;5.65;;;1.40;99.90;;;;;;5072293;28;20412;-49
2020/12/11 06:49:15;;;;;;;176.75;2.20;;;1.30;99.90;;;;;;5058806;28;20500;-49
2020/12/11 06:51:47;;;;;;;111.68;2.38;;;1.10;99.90;;;;;;5068481;28;20048;-49
2020/12/11 06:54:20;;;;;;;52.58;0.70;;;1.10;99.90;;;;;;5058257;28;20053;-49
2020/12/11 06:57:00;;;;;;;2.33;1.20;;;1.20;99.90;;;;;;5073735;28;20142;-49
2020/12/11 06:59:37;;;;;;;89.65;1.38;;;1.20;99.90;;;;;;5072070;28;20040;-49
2020/12/11 07:02:15;;;;;;;182.15;5.25;;;1.10;99.90;;;;;;5073254;28;20052;-50
2020/12/11 07:04:51;;;;;;;218.02;5.22;;;1.00;99.90;;;;;;5072721;28;20466;-49
2020/12/11 07:07:18;;;;;;;226.73;3.78;;;1.10;99.90;;;;;;5072088;28;20060;-49
2020/12/11 07:09:47;;;;;;;183.93;4.22;;;0.90;99.90;;;;;;5072169;28;20044;-49
2020/12/11 07:12:15;;;;;;;36.78;0.50;;;0.80;99.90;;;;;;5064300;28;20057;-49
2020/12/11 07:14:47;;;;;;;121.15;2.20;;;0.80;99.90;;;;;;5073337;28;20068;-50
2020/12/11 07:17:28;;;;;;;185.18;3.03;;;0.80;99.90;;;;;;5071941;28;20535;-50
2020/12/11 07:19:56;;;;;;;10.02;0.50;;;0.80;99.90;;;;;;5072429;28;20482;-49
2020/12/11 07:22:23;;;;;;;18.20;0.50;;;0.90;99.90;;;;;;5065633;28;20052;-50
2020/12/11 07:24:50;;;;;;;83.00;0.82;;;1.00;99.90;;;;;;5061490;28;20036;-50
2020/12/11 07:27:17;;;;;;;187.75;2.60;;;1.00;99.90;;;;;;5060555;28;20140;-49
2020/12/11 07:29:52;;;;;;;37.67;0.60;;;0.90;99.90;;;;;;5066210;28;20516;-50
2020/12/11 07:32:19;;;;;;;214.68;3.35;;;1.00;99.90;;;;;;5072526;28;20051;-53
2020/12/11 07:34:46;;;;;;;31.83;0.88;;;0.90;99.90;;;;;;5070333;28;20492;-49
2020/12/11 07:37:13;;;;;;;19.60;0.30;;;0.90;99.90;;;;;;5069953;28;20053;-51
2020/12/11 07:39:40;;;;;;;13.70;0.40;;;1.00;99.90;;;;;;5065137;28;20053;-49
2020/12/11 07:42:08;;;;;;;13.27;0.80;;;1.10;99.90;;;;;;5072391;28;20538;-49
2020/12/11 07:44:37;;;;;;;12.02;0.80;;;1.10;99.90;;;;;;5073262;28;20083;-49
2020/12/11 07:47:11;;;;;;;36.17;1.23;;;1.20;99.90;;;;;;5071065;28;20457;-49
2020/12/11 07:49:40;;;;;;;1.58;0.40;;;1.20;99.90;;;;;;5059845;28;20110;-50
2020/12/11 07:52:08;;;;;;;0.30;0.30;;;1.30;99.90;;;;;;5072359;28;20052;-49
2020/12/11 07:54:40;;;;;;;4.45;0.60;;;1.30;99.90;;;;;;5071189;28;20097;-49
2020/12/11 07:57:10;;;;;;;0.28;0.28;;;1.40;99.90;;;;;;5072352;28;20055;-49
2020/12/11 07:59:37;;;;;;;0.50;0.40;;;1.50;99.90;;;;;;5072032;28;20063;-49
2020/12/11 08:02:04;;;;;;;0.80;0.68;;;1.50;99.90;;;;;;5057538;28;20632;-49
2020/12/11 08:04:35;;;;;;;16.42;4.97;;;1.50;99.90;;;;;;5068744;28;20048;-51
2020/12/11 08:07:03;;;;;;;15.88;5.78;;;1.50;99.90;;;;;;5071106;28;20041;-49
2020/12/11 08:09:33;;;;;;;87.03;29.67;;;1.50;99.90;;;;;;5066213;28;20048;-50
2020/12/11 08:12:15;;;;;;;56.60;21.85;;;1.50;99.90;;;;;;5060964;28;20052;-49
2020/12/11 08:14:45;;;;;;;58.22;22.33;;;1.50;99.90;;;;;;5072534;28;20162;-50
2020/12/11 08:17:14;;;;;;;101.70;20.33;;;1.60;99.90;;;;;;5070107;28;20051;-49
2020/12/11 08:19:42;;;;;;;116.78;17.35;;;1.60;99.90;;;;;;5072275;28;20074;-50
2020/12/11 08:22:13;;;;;;;57.80;16.90;;;1.60;99.90;;;;;;5070203;28;20496;-50
2020/12/11 08:24:41;;;;;;;124.97;24.23;;;1.70;99.90;;;;;;5065998;28;20524;-49
2020/12/11 08:27:20;;;;;;;503.42;39.75;;;1.70;99.90;;;;;;5071648;28;20048;-49
2020/12/11 08:30:16;;;;;;;535.00;46.40;;;1.60;99.90;;;;;;5069576;28;20044;-50
2020/12/11 08:32:44;;;;;;;380.38;37.55;;;1.40;99.90;;;;;;5053701;28;20051;-49
2020/12/11 08:35:18;;;;;;;346.90;51.00;;;1.40;99.90;;;;;;5070317;28;20424;-49
2020/12/11 08:38:00;;;;;;;140.57;20.70;;;1.50;99.90;;;;;;5068890;28;20443;-49
2020/12/11 08:40:29;;;;;;;368.27;29.40;;;1.50;99.90;;;;;;5071018;28;20044;-49
2020/12/11 08:43:08;;;;;;;41.97;14.18;;;1.60;99.90;;;;;;5070291;28;20052;-50
2020/12/11 08:45:40;;;;;;;149.25;20.45;;;1.70;99.90;;;;;;5070302;28;20064;-49
2020/12/11 08:48:28;;;;;;;20.27;8.02;;;1.70;99.90;;;;;;5070608;28;20064;-49
2020/12/11 08:51:02;;;;;;;15.30;7.07;;;1.70;99.90;;;;;;5070696;28;20052;-49
2020/12/11 08:53:34;;;;;;;9.18;4.90;;;1.80;99.90;;;;;;5071893;28;20056;-49
2020/12/11 08:56:05;;;;;;;18.67;9.10;;;1.90;99.90;;;;;;5070012;28;20048;-49
2020/12/11 08:58:32;;;;;;;35.47;13.75;;;2.10;99.90;;;;;;5054767;28;20040;-49
2020/12/11 09:00:59;;;;;;;11.43;4.97;;;2.10;99.90;;;;;;5070101;28;20045;-49
2020/12/11 09:03:25;;;;;;;19.70;9.20;;;2.20;99.90;;;;;;5070110;28;20052;-50
2020/12/11 09:05:52;;;;;;;9.75;3.88;;;2.20;99.90;;;;;;5061800;28;20102;-49
2020/12/11 09:08:18;;;;;;;13.93;5.38;;;2.20;99.90;;;;;;5061505;28;20040;-49
2020/12/11 09:10:45;;;;;;;34.40;9.98;;;2.30;99.90;;;;;;5057883;28;20493;-49
2020/12/11 09:13:12;;;;;;;15.68;6.30;;;2.30;99.90;;;;;;5068793;28;20471;-49
2020/12/11 09:15:38;;;;;;;6.32;3.78;;;2.30;99.90;;;;;;5064513;28;20064;-49
2020/12/11 09:18:05;;;;;;;1.80;1.55;;;2.40;99.90;;;;;;5070940;28;20048;-49
2020/12/11 09:20:32;;;;;;;1.95;1.45;;;2.70;99.90;;;;;;5074905;28;20551;-49
2020/12/11 09:22:59;;;;;;;2.85;2.00;;;2.70;99.90;;;;;;5076323;28;20462;-49
2020/12/11 09:25:25;;;;;;;5.45;1.75;;;3.00;99.90;;;;;;5070566;28;20048;-50
2020/12/11 09:27:52;;;;;;;3.28;2.20;;;3.30;99.90;;;;;;5067833;28;20395;-50
2020/12/11 09:30:26;;;;;;;3.50;2.28;;;3.30;99.90;;;;;;5069256;28;20051;-50
2020/12/11 09:35:27;;;;;;;1.05;0.50;;;3.60;99.90;;;;;;5072614;28;20095;-50
2020/12/11 09:37:57;;;;;;;2.58;1.40;;;3.90;99.90;;;;;;5069879;28;20041;-50
2020/12/11 09:48:37;;;;;;;2.28;0.82;;;4.50;99.90;;;;;;5074976;28;20062;-50
2020/12/11 09:56:04;;;;;;;1.75;1.13;;;4.70;99.90;;;;;;5075298;28;20401;-49
2020/12/11 09:58:35;;;;;;;6.35;4.55;;;4.80;99.90;;;;;;5074591;28;20044;-50
2020/12/11 10:01:04;;;;;;;5.18;3.08;;;4.60;99.90;;;;;;5069386;28;20044;-49
2020/12/11 10:03:35;;;;;;;7.93;4.28;;;4.60;99.90;;;;;;5060012;28;20501;-49
2020/12/11 10:06:06;;;;;;;7.05;3.70;;;4.60;99.90;;;;;;5067663;28;20056;-50
2020/12/11 10:08:32;;;;;;;6.10;3.47;;;4.90;99.90;;;;;;5063932;28;20052;-49
2020/12/11 10:10:59;;;;;;;5.78;3.38;;;5.40;99.90;;;;;;5075110;28;20056;-50
2020/12/11 10:13:26;;;;;;;1.33;1.23;;;5.00;99.90;;;;;;5073483;28;20051;-49
2020/12/11 10:15:53;;;;;;;0.57;0.40;;;4.80;99.90;;;;;;5063774;28;20060;-51
2020/12/11 10:18:20;;;;;;;1.35;1.25;;;4.60;99.90;;;;;;5073312;28;20473;-49
2020/12/11 10:20:46;;;;;;;3.03;1.50;;;4.70;99.90;;;;;;5072775;28;20047;-49
2020/12/11 10:23:13;;;;;;;4.05;1.40;;;4.90;99.90;;;;;;5063557;28;20049;-51
2020/12/11 10:25:40;;;;;;;3.55;0.88;;;5.20;99.90;;;;;;5064096;28;20045;-50
2020/12/11 10:28:06;;;;;;;1.00;0.70;;;5.20;99.90;;;;;;5064533;28;20048;-49
2020/12/11 10:30:32;;;;;;;0.73;0.60;;;5.60;99.90;;;;;;5071108;28;20048;-50
2020/12/11 10:32:59;;;;;;;1.35;0.77;;;5.80;99.90;;;;;;5055706;28;20482;-51
2020/12/11 10:35:25;;;;;;;0.90;0.90;;;5.70;99.90;;;;;;5070196;28;20681;-50
2020/12/11 10:37:53;;;;;;;0.80;0.70;;;5.70;99.90;;;;;;5071693;28;20127;-49
2020/12/11 10:40:19;;;;;;;4.40;1.65;;;5.70;99.90;;;;;;5072231;28;20044;-50
2020/12/11 10:42:46;;;;;;;1.30;1.17;;;5.70;99.90;;;;;;5063477;28;20055;-50
2020/12/11 10:45:13;;;;;;;1.77;0.80;;;6.00;99.90;;;;;;5073334;28;20044;-51
2020/12/11 10:47:43;;;;;;;0.90;0.70;;;6.40;99.90;;;;;;5070396;28;20053;-50
2020/12/11 10:50:09;;;;;;;2.63;0.75;;;6.70;99.90;;;;;;5071348;28;20048;-51
2020/12/11 10:52:36;;;;;;;0.80;0.80;;;7.00;99.90;;;;;;5072043;28;20052;-50
2020/12/11 10:55:03;;;;;;;0.50;0.40;;;7.10;99.90;;;;;;5062199;28;20119;-49
2020/12/11 10:57:29;;;;;;;0.10;0.10;;;6.80;99.90;;;;;;5053250;28;20045;-50
2020/12/11 10:59:56;;;;;;;0.13;0.13;;;6.60;99.90;;;;;;5061578;28;20051;-49
2020/12/11 11:02:23;;;;;;;0.30;0.20;;;6.60;99.90;;;;;;5072939;28;20082;-49
2020/12/11 11:04:49;;;;;;;0.30;0.17;;;6.70;99.90;;;;;;5071855;28;20040;-50
2020/12/11 11:07:21;;;;;;;0.30;0.10;;;6.80;99.90;;;;;;5060640;28;20049;-49
2020/12/11 11:12:37;;;;;;;0.80;0.57;;;7.00;99.90;;;;;;5068670;28;20127;-50
2020/12/11 11:20:33;;;;;;;2.75;0.80;;;7.90;99.90;;;;;;5071973;28;20047;-50
2020/12/11 11:28:01;;;;;;;2.25;1.10;;;8.50;99.90;;;;;;5070675;28;20299;-49
2020/12/11 11:30:28;;;;;;;2.10;0.70;;;8.60;99.90;;;;;;5070594;28;20057;-51
2020/12/11 11:32:58;;;;;;;3.50;0.70;;;8.70;99.90;;;;;;5071828;28;20051;-50
2020/12/11 11:35:25;;;;;;;0.60;0.50;;;8.70;99.90;;;;;;5069874;28;20051;-51
2020/12/11 11:37:52;;;;;;;1.73;0.60;;;8.70;99.90;;;;;;5071912;28;20058;-49
2020/12/11 11:40:19;;;;;;;0.47;0.32;;;8.70;99.90;;;;;;5069380;28;20041;-50
2020/12/11 11:42:45;;;;;;;3.40;0.50;;;8.90;99.90;;;;;;5070448;28;20049;-50
2020/12/11 11:45:16;;;;;;;0.85;0.32;;;9.10;99.90;;;;;;5070445;28;20045;-50
2020/12/11 11:47:47;;;;;;;0.50;0.20;;;9.20;99.90;;;;;;5070493;28;20048;-51
2020/12/11 11:55:12;;;;;;;0.40;0.30;;;9.30;99.90;;;;;;5068788;28;20174;-50
2020/12/11 11:57:39;;;;;;;0.28;0.20;;;9.00;99.90;;;;;;5066606;28;20493;-50
2020/12/11 12:00:08;;;;;;;0.40;0.30;;;8.90;99.90;;;;;;5071477;28;20400;-52
2020/12/11 12:02:35;;;;;;;1.65;0.50;;;9.20;99.90;;;;;;5069133;28;20051;-49
2020/12/11 12:05:02;;;;;;;0.60;0.40;;;9.20;99.90;;;;;;5064729;28;20053;-50
2020/12/11 12:07:29;;;;;;;0.50;0.40;;;9.30;99.90;;;;;;5063846;28;20045;-50
2020/12/11 12:09:56;;;;;;;0.35;0.30;;;9.60;99.90;;;;;;5064173;28;20055;-50
2020/12/11 12:12:23;;;;;;;1.00;0.30;;;10.00;99.90;;;;;;5063053;28;20138;-50
2020/12/11 12:14:50;;;;;;;0.30;0.25;;;9.80;99.90;;;;;;5070278;28;20056;-50
2020/12/11 12:17:28;;;;;;;0.30;0.20;;;9.70;99.90;;;;;;5053803;28;20409;-50
2020/12/11 12:19:59;;;;;;;0.20;0.20;;;9.70;99.90;;;;;;5071140;28;20052;-50
2020/12/11 12:30:52;;;;;;;0.15;0.10;;;9.70;99.90;;;;;;5070696;28;20404;-50
2020/12/11 12:43:57;;;;;;;1.27;0.57;;;9.80;99.90;;;;;;5061061;28;20067;-50
2020/12/11 12:46:23;;;;;;;0.10;0.00;;;9.80;99.90;;;;;;5071612;28;20052;-50
2020/12/11 12:48:50;;;;;;;2.25;1.00;;;9.50;99.90;;;;;;5069951;28;20478;-50
2020/12/11 12:51:17;;;;;;;0.90;0.80;;;9.50;99.90;;;;;;5071521;28;20448;-50
2020/12/11 12:53:44;;;;;;;3.13;0.90;;;9.40;99.90;;;;;;5069143;28;20052;-50
2020/12/11 12:59:06;;;;;;;1.00;0.70;;;9.40;99.90;;;;;;5071636;28;20481;-50
2020/12/11 13:02:00;;;;;;;1.50;0.70;;;9.40;99.90;;;;;;5070677;28;20045;-50
2020/12/11 13:04:42;;;;;;;;;;;9.50;99.90;;;;;;5072276;28;20094;-50
2020/12/11 13:07:09;;;;;;;2.25;0.93;;;9.50;99.90;;;;;;5069979;28;19920;-51
2020/12/11 13:09:36;;;;;;;4.30;2.10;;;9.40;99.90;;;;;;5059784;28;20041;-51
2020/12/11 13:12:03;;;;;;;9.55;5.05;;;9.30;99.90;;;;;;5071705;28;20185;-50
2020/12/11 13:14:29;;;;;;;10.10;5.95;;;9.00;99.90;;;;;;5070395;28;20053;-50
2020/12/11 13:16:56;;;;;;;5.45;2.83;;;8.90;99.90;;;;;;5056983;28;20057;-50
2020/12/11 13:19:26;;;;;;;1.55;0.95;;;8.80;99.90;;;;;;5067515;28;20044;-50
2020/12/11 13:27:27;;;;;;;9.68;3.17;;;8.90;99.90;;;;;;5062299;28;20044;-50
2020/12/11 13:29:54;;;;;;;3.17;1.27;;;9.00;99.90;;;;;;5081486;28;20055;-51
2020/12/11 13:32:21;;;;;;;1.55;1.10;;;9.10;99.90;;;;;;5071950;28;20380;-50
2020/12/11 13:34:49;;;;;;;2.20;1.02;;;9.00;99.90;;;;;;5068132;28;20048;-49
2020/12/11 13:37:16;;;;;;;1.50;1.13;;;8.80;99.90;;;;;;5068668;28;20135;-50
2020/12/11 13:39:43;;;;;;;6.55;3.75;;;8.70;99.90;;;;;;5070313;28;20045;-50
2020/12/11 13:42:11;;;;;;;2.53;1.27;;;8.60;99.90;;;;;;5070195;28;20041;-50
2020/12/11 13:44:37;;;;;;;6.30;3.25;;;8.60;99.90;;;;;;5069855;28;20045;-49
2020/12/11 13:47:05;;;;;;;1.40;1.30;;;8.70;99.90;;;;;;5071288;28;20048;-50
2020/12/11 13:49:32;;;;;;;1.92;0.90;;;8.80;99.90;;;;;;5066912;28;20708;-50
2020/12/11 13:51:58;;;;;;;0.45;0.43;;;8.90;99.90;;;;;;5069543;28;20052;-50
2020/12/11 13:54:25;;;;;;;0.90;0.80;;;8.90;99.90;;;;;;5070618;28;20493;-50
2020/12/11 13:56:52;;;;;;;0.88;0.77;;;8.90;99.90;;;;;;5069385;28;20393;-50
2020/12/11 13:59:19;;;;;;;10.07;0.90;;;8.90;99.90;;;;;;5069271;28;20051;-50